Time;durP1;ratioP1;P1;durP2;ratioP2;P2;SDS_P1;SDS_P2;PMS_P1;PMS_P2;Temp;Humidity;BMP_temperature;BMP_pressure;BME280_temperature;BME280_humidity;BME280_pressure;Samples;Min_cycle;Max_cycle;Signal;HPM_P1;HPM_P2
2024/03/11 00:03:19;;;;;;;;;;;;;;;20.25;37.63;94100.41;10295666;28;2859;-70
2024/03/11 00:08:21;;;;;;;;;;;;;;;20.22;37.75;94090.47;10328037;28;2912;-69
2024/03/11 00:13:22;;;;;;;;;;;;;;;20.21;37.58;94093.41;10306585;28;2832;-69
2024/03/11 00:18:22;;;;;;;;;;;;;;;20.20;37.60;94097.91;10318653;28;2778;-70
2024/03/11 00:23:23;;;;;;;;;;;;;;;20.18;37.52;94109.78;10324192;28;2831;-70
2024/03/11 00:28:23;;;;;;;;;;;;;;;20.17;37.45;94108.25;10301714;28;2826;-70
2024/03/11 00:33:23;;;;;;;;;;;;;;;20.16;37.33;94104.06;10285474;28;2979;-68
2024/03/11 00:38:24;;;;;;;;;;;;;;;20.12;37.67;94106.53;10299826;28;2775;-70
2024/03/11 00:43:25;;;;;;;;;;;;;;;20.12;37.42;94113.66;10294971;28;2758;-69
2024/03/11 00:48:25;;;;;;;;;;;;;;;20.11;37.60;94131.28;10326915;28;2744;-69
2024/03/11 00:53:25;;;;;;;;;;;;;;;20.09;37.47;94124.81;10292236;28;2910;-69
2024/03/11 00:58:26;;;;;;;;;;;;;;;20.08;37.49;94136.41;10292976;28;2945;-70
2024/03/11 01:03:27;;;;;;;;;;;;;;;20.07;37.57;94145.38;10312099;28;2831;-69
2024/03/11 01:08:31;;;;;;;;;;;;;;;20.05;37.27;94147.56;10319700;28;2850;-69
2024/03/11 01:13:31;;;;;;;;;;;;;;;20.04;37.45;94135.47;10308904;28;2834;-69
2024/03/11 01:18:32;;;;;;;;;;;;;;;20.02;37.19;94156.03;10296576;28;2894;-68
2024/03/11 01:23:32;;;;;;;;;;;;;;;20.01;37.36;94155.25;10293367;28;2850;-70
2024/03/11 01:28:33;;;;;;;;;;;;;;;19.99;37.27;94159.31;10298667;28;2740;-70
2024/03/11 01:33:33;;;;;;;;;;;;;;;19.97;37.24;94161.47;10291493;28;2842;-70
2024/03/11 01:38:33;;;;;;;;;;;;;;;19.96;37.17;94167.78;10280293;28;2790;-71
2024/03/11 01:43:34;;;;;;;;;;;;;;;19.95;37.40;94164.38;10297187;28;2890;-70
2024/03/11 01:48:34;;;;;;;;;;;;;;;19.95;37.17;94174.13;10300845;28;2794;-69
2024/03/11 01:53:35;;;;;;;;;;;;;;;19.93;37.06;94171.81;10316992;28;2890;-70
2024/03/11 01:58:35;;;;;;;;;;;;;;;19.91;37.07;94175.81;10318157;28;2786;-69
2024/03/11 02:03:36;;;;;;;;;;;;;;;19.90;37.05;94185.59;10288477;28;2923;-70
2024/03/11 02:08:37;;;;;;;;;;;;;;;19.89;37.14;94186.66;10287447;28;2979;-70
2024/03/11 02:13:37;;;;;;;;;;;;;;;19.88;37.26;94187.75;10291590;28;2816;-69
2024/03/11 02:18:39;;;;;;;;;;;;;;;19.87;36.98;94185.41;10314060;28;2745;-70
2024/03/11 02:23:39;;;;;;;;;;;;;;;19.86;37.13;94202.28;10293060;28;2881;-70
2024/03/11 02:28:40;;;;;;;;;;;;;;;19.85;37.05;94198.84;10305899;28;2822;-69
2024/03/11 02:33:40;;;;;;;;;;;;;;;19.84;37.03;94202.59;10311617;28;2822;-70
2024/03/11 02:38:40;;;;;;;;;;;;;;;19.83;37.10;94203.66;10290370;28;2930;-69
2024/03/11 02:43:41;;;;;;;;;;;;;;;19.81;37.17;94215.53;10291137;28;3288;-69
2024/03/11 02:48:42;;;;;;;;;;;;;;;19.79;36.93;94215.84;10300870;28;2879;-70
2024/03/11 02:53:43;;;;;;;;;;;;;;;19.78;37.01;94213.53;10305493;28;3370;-69
2024/03/11 02:58:43;;;;;;;;;;;;;;;19.77;36.91;94225.13;10299854;28;2783;-71
2024/03/11 03:03:43;;;;;;;;;;;;;;;19.77;36.85;94230.38;10315251;28;2794;-71
2024/03/11 03:08:44;;;;;;;;;;;;;;;19.76;36.86;94231.47;10295563;28;2927;-69
2024/03/11 03:13:44;;;;;;;;;;;;;;;19.76;36.84;94236.72;10296958;28;2812;-71
2024/03/11 03:18:45;;;;;;;;;;;;;;;19.73;36.81;94234.69;10287084;28;2938;-69
2024/03/11 03:23:45;;;;;;;;;;;;;;;19.70;36.96;94241.34;10314724;28;2893;-70
2024/03/11 03:28:47;;;;;;;;;;;;;;;19.71;36.82;94255.25;10284697;28;2786;-70
2024/03/11 03:33:48;;;;;;;;;;;;;;;19.71;36.81;94273.66;10285629;28;2860;-70
2024/03/11 03:38:48;;;;;;;;;;;;;;;19.70;37.09;94272.13;10295622;28;2779;-69
2024/03/11 03:43:49;;;;;;;;;;;;;;;19.68;36.83;94293.44;10302666;28;2812;-69
2024/03/11 03:48:49;;;;;;;;;;;;;;;19.68;36.66;94297.94;10299283;28;2849;-70
2024/03/11 03:53:49;;;;;;;;;;;;;;;19.66;36.79;94292.97;10313169;28;2850;-70
2024/03/11 03:58:51;;;;;;;;;;;;;;;19.66;36.86;94297.47;10295813;28;3025;-69
2024/03/11 04:03:52;;;;;;;;;;;;;;;19.65;36.69;94298.53;10294119;28;2887;-69
2024/03/11 04:08:52;;;;;;;;;;;;;;;19.64;36.67;94304.88;10281472;28;2790;-69
2024/03/11 04:13:53;;;;;;;;;;;;;;;19.63;36.71;94316.47;10301318;28;2964;-71
2024/03/11 04:18:53;;;;;;;;;;;;;;;19.62;36.75;94312.28;10302373;28;3351;-70
2024/03/11 04:23:54;;;;;;;;;;;;;;;19.61;36.68;94321.25;10307027;28;2895;-69
2024/03/11 04:28:54;;;;;;;;;;;;;;;19.60;36.65;94323.09;10327962;28;2722;-70
2024/03/11 04:33:55;;;;;;;;;;;;;;;19.59;36.72;94328.66;10325609;28;2814;-70
2024/03/11 04:38:56;;;;;;;;;;;;;;;19.57;36.62;94328.97;10301709;28;2816;-70
2024/03/11 04:43:57;;;;;;;;;;;;;;;19.57;36.68;94333.44;10288141;28;2813;-70
2024/03/11 04:48:58;;;;;;;;;;;;;;;19.56;36.54;94340.53;10314426;28;2804;-70
2024/03/11 04:53:58;;;;;;;;;;;;;;;19.56;36.73;94353.69;10293860;28;2826;-70
2024/03/11 04:59:01;;;;;;;;;;;;;;;19.55;36.74;94353.97;10303223;28;2838;-69
2024/03/11 05:04:01;;;;;;;;;;;;;;;19.53;36.56;94361.41;10300196;28;2798;-71
2024/03/11 05:09:02;;;;;;;;;;;;;;;19.54;36.35;94373.47;10296799;28;2834;-70
2024/03/11 05:14:02;;;;;;;;;;;;;;;19.57;36.29;94383.38;10292858;28;2803;-71
2024/03/11 05:19:03;;;;;;;;;;;;;;;19.62;36.28;94391.91;10292456;28;2775;-70
2024/03/11 05:24:03;;;;;;;;;;;;;;;19.69;36.21;94396.75;10295269;28;2858;-70
2024/03/11 05:29:03;;;;;;;;;;;;;;;19.74;36.01;94399.25;10376549;28;2901;-70
2024/03/11 05:34:04;;;;;;;;;;;;;;;19.82;35.88;94407.22;10315774;28;2940;-71
2024/03/11 05:39:06;;;;;;;;;;;;;;;19.87;35.98;94409.69;10279835;28;2814;-71
2024/03/11 05:44:06;;;;;;;;;;;;;;;19.94;35.82;94409.28;10294129;28;3124;-70
2024/03/11 05:49:13;;;;;;;;;;;;;;;19.99;35.95;94417.06;10282549;28;2838;-69
2024/03/11 05:54:17;;;;;;;;;;;;;;;20.03;35.59;94415.38;10324630;28;2846;-71
2024/03/11 05:59:18;;;;;;;;;;;;;;;20.07;35.71;94421.59;10294987;28;2831;-70
2024/03/11 06:04:18;;;;;;;;;;;;;;;20.13;35.40;94430.91;10329189;28;2872;-71
2024/03/11 06:09:18;;;;;;;;;;;;;;;20.16;35.55;94438.16;10323717;28;2827;-70
2024/03/11 06:14:18;;;;;;;;;;;;;;;20.18;35.35;94434.16;10299363;28;2782;-70
2024/03/11 06:19:20;;;;;;;;;;;;;;;20.13;33.77;94433.53;10297432;28;2815;-71
2024/03/11 06:24:22;;;;;;;;;;;;;;;20.11;33.78;94438.31;10328650;28;2876;-67
2024/03/11 06:29:24;;;;;;;;;;;;;;;20.14;34.18;94448.22;10303066;28;2811;-68
2024/03/11 06:34:24;;;;;;;;;;;;;;;20.13;34.21;94455.34;10297953;28;2906;-68
2024/03/11 06:39:29;;;;;;;;;;;;;;;20.15;34.13;94460.31;10371195;28;2844;-68
2024/03/11 06:44:29;;;;;;;;;;;;;;;20.15;34.67;94462.94;10321455;27;2958;-70
2024/03/11 06:49:32;;;;;;;;;;;;;;;20.16;34.72;94469.75;10299901;28;2819;-70
2024/03/11 06:54:33;;;;;;;;;;;;;;;20.21;34.47;94461.75;10310158;28;2790;-70
2024/03/11 06:59:33;;;;;;;;;;;;;;;20.26;34.42;94448.47;10298169;28;2846;-67
2024/03/11 07:04:34;;;;;;;;;;;;;;;20.28;34.32;94441.81;10288738;28;2857;-72
2024/03/11 07:09:34;;;;;;;;;;;;;;;20.37;34.55;94444.50;10287470;28;2909;-70
2024/03/11 07:14:37;;;;;;;;;;;;;;;20.36;34.37;94437.69;10287321;28;2839;-70
2024/03/11 07:19:38;;;;;;;;;;;;;;;20.43;34.07;94448.56;10305021;28;2927;-70
2024/03/11 07:24:40;;;;;;;;;;;;;;;20.48;34.42;94452.91;10301131;28;2857;-70
2024/03/11 07:29:41;;;;;;;;;;;;;;;20.49;33.84;94460.50;10297657;28;2820;-69
2024/03/11 07:34:42;;;;;;;;;;;;;;;20.53;34.31;94466.72;10331775;28;2910;-69
2024/03/11 07:39:43;;;;;;;;;;;;;;;20.56;34.10;94476.66;10317498;28;2842;-72
2024/03/11 07:44:47;;;;;;;;;;;;;;;20.62;33.94;94480.69;10295624;28;2836;-69
2024/03/11 07:49:48;;;;;;;;;;;;;;;20.64;34.07;94488.28;10306651;28;2782;-69
2024/03/11 07:54:49;;;;;;;;;;;;;;;20.67;33.95;94483.19;10295609;28;2803;-69
2024/03/11 07:59:50;;;;;;;;;;;;;;;20.73;33.72;94502.28;10309895;28;3148;-71
2024/03/11 08:04:51;;;;;;;;;;;;;;;20.76;33.76;94505.06;10310392;28;2837;-70
2024/03/11 08:09:51;;;;;;;;;;;;;;;20.78;33.54;94510.81;10321994;28;2807;-70
2024/03/11 08:14:52;;;;;;;;;;;;;;;20.79;33.53;94524.75;10301577;28;2850;-70
2024/03/11 08:19:52;;;;;;;;;;;;;;;20.78;33.73;94534.50;10298621;28;2929;-70
2024/03/11 08:24:52;;;;;;;;;;;;;;;20.81;33.64;94543.66;10289875;28;2942;-69
2024/03/11 08:29:54;;;;;;;;;;;;;;;20.83;33.88;94559.94;10289138;28;2804;-69
2024/03/11 08:34:55;;;;;;;;;;;;;;;20.84;33.72;94562.28;10273713;28;2890;-70
2024/03/11 08:39:56;;;;;;;;;;;;;;;20.89;33.51;94570.06;10323827;28;2921;-70
2024/03/11 08:44:56;;;;;;;;;;;;;;;20.89;33.75;94574.53;10317943;28;2928;-69
2024/03/11 08:49:58;;;;;;;;;;;;;;;20.92;33.45;94573.91;10322752;28;2841;-69
2024/03/11 08:54:59;;;;;;;;;;;;;;;20.92;33.83;94566.78;10295904;28;2810;-70
2024/03/11 09:00:00;;;;;;;;;;;;;;;20.94;33.77;94564.63;10286071;28;2877;-70
2024/03/11 09:05:01;;;;;;;;;;;;;;;20.97;33.90;94571.94;10280599;28;3029;-69
2024/03/11 09:10:03;;;;;;;;;;;;;;;21.00;33.55;94573.94;10309510;28;2873;-69
2024/03/11 09:15:06;;;;;;;;;;;;;;;20.97;34.18;94574.56;10292759;28;2817;-70
2024/03/11 09:20:08;;;;;;;;;;;;;;;21.04;33.43;94572.28;10289239;28;2816;-69
2024/03/11 09:25:08;;;;;;;;;;;;;;;21.03;33.96;94568.13;10291950;28;2744;-72
2024/03/11 09:30:08;;;;;;;;;;;;;;;21.03;34.27;94576.03;10281139;28;3228;-69
2024/03/11 09:35:09;;;;;;;;;;;;;;;21.04;34.30;94579.44;10324517;28;2894;-69
2024/03/11 09:40:10;;;;;;;;;;;;;;;21.04;34.29;94568.91;10304201;28;2866;-69
2024/03/11 09:45:10;;;;;;;;;;;;;;;21.06;34.07;94562.22;10299240;28;2763;-68
2024/03/11 09:50:11;;;;;;;;;;;;;;;21.06;34.23;94550.94;10292991;28;2906;-70
2024/03/11 09:55:11;;;;;;;;;;;;;;;21.09;34.21;94552.94;10275825;28;2885;-70
2024/03/11 10:00:14;;;;;;;;;;;;;;;21.13;34.18;94558.38;10279347;28;2867;-70
2024/03/11 10:05:16;;;;;;;;;;;;;;;21.10;34.28;94551.09;10317768;28;2932;-70
2024/03/11 10:10:19;;;;;;;;;;;;;;;21.13;34.44;94555.75;10280320;28;2925;-72
2024/03/11 10:15:27;;;;;;;;;;;;;;;21.12;34.17;94557.63;10301812;28;2921;-73
2024/03/11 10:20:29;;;;;;;;;;;;;;;21.14;36.23;94559.94;10314226;28;2892;-66
2024/03/11 10:25:31;;;;;;;;;;;;;;;21.19;38.13;94567.69;10295858;28;2812;-67
2024/03/11 10:30:32;;;;;;;;;;;;;;;21.25;38.52;94558.56;10326550;28;2889;-68
2024/03/11 10:35:35;;;;;;;;;;;;;;;21.25;38.81;94563.84;10308747;28;2874;-68
2024/03/11 10:40:38;;;;;;;;;;;;;;;21.23;39.56;94555.47;10289766;28;2767;-67
2024/03/11 10:45:41;;;;;;;;;;;;;;;21.25;38.96;94563.84;10285518;28;3033;-68
2024/03/11 10:50:41;;;;;;;;;;;;;;;21.25;40.25;94563.84;10297297;28;2827;-67
2024/03/11 10:55:42;;;;;;;;;;;;;;;21.27;40.14;94572.25;10262239;28;2882;-67
2024/03/11 11:00:44;;;;;;;;;;;;;;;21.24;39.63;94575.47;10290640;28;2956;-67
2024/03/11 11:05:47;;;;;;;;;;;;;;;21.25;39.97;94567.25;10318091;28;2815;-66
2024/03/11 11:10:48;;;;;;;;;;;;;;;21.26;39.55;94576.72;10289814;28;2899;-62
2024/03/11 11:15:48;;;;;;;;;;;;;;;21.21;39.62;94571.59;10317939;28;2875;-66
2024/03/11 11:20:49;;;;;;;;;;;;;;;21.30;40.94;94582.16;10289677;28;2935;-66
2024/03/11 11:25:51;;;;;;;;;;;;;;;21.25;41.26;94575.16;10294759;28;2894;-65
2024/03/11 11:31:11;;;;;;;;;;;;;;;21.27;41.61;94572.25;10291982;28;2900;-67
2024/03/11 11:36:16;;;;;;;;;;;;;;;21.31;41.90;94560.75;10288049;28;2776;-63
2024/03/11 11:41:36;;;;;;;;;;;;;;;21.32;41.66;94561.53;10305948;28;2805;-66
2024/03/11 11:46:40;;;;;;;;;;;;;;;21.33;42.49;94555.94;10286929;28;2869;-67
2024/03/11 11:51:40;;;;;;;;;;;;;;;21.34;42.78;94559.38;10319360;28;2952;-66
2024/03/11 11:56:41;;;;;;;;;;;;;;;21.36;42.83;94562.47;10282066;28;2790;-67
2024/03/11 12:01:50;;;;;;;;;;;;;;;21.35;43.43;94555.66;10291076;28;2811;-67
2024/03/11 12:06:51;;;;;;;;;;;;;;;21.32;42.27;94556.28;10304208;28;2859;-66
2024/03/11 12:11:54;;;;;;;;;;;;;;;21.29;43.10;94562.16;10303097;28;2893;-64
2024/03/11 12:17:04;;;;;;;;;;;;;;;21.25;42.81;94564.63;10304373;28;2939;-66
2024/03/11 12:22:04;;;;;;;;;;;;;;;21.25;42.04;94563.84;10288532;28;2822;-67
2024/03/11 12:27:04;;;;;;;;;;;;;;;21.21;43.40;94562.88;10300604;28;2798;-66
2024/03/11 12:32:08;;;;;;;;;;;;;;;21.19;42.70;94560.56;10301604;28;2812;-66
2024/03/11 12:37:09;;;;;;;;;;;;;;;21.15;41.67;94561.47;10305736;28;2882;-67
2024/03/11 12:42:09;;;;;;;;;;;;;;;21.12;41.02;94565.53;10286196;28;2823;-66
2024/03/11 12:47:10;;;;;;;;;;;;;;;21.15;41.08;94564.13;10286656;28;2816;-66
2024/03/11 12:52:13;;;;;;;;;;;;;;;21.10;40.94;94567.69;10307708;28;2882;-66
2024/03/11 12:57:17;;;;;;;;;;;;;;;21.10;40.27;94566.91;10299584;28;2888;-65
2024/03/11 13:02:19;;;;;;;;;;;;;;;21.13;39.79;94566.28;10284813;28;2870;-69
2024/03/11 13:07:19;;;;;;;;;;;;;;;21.08;40.05;94565.34;10287171;28;3104;-70
2024/03/11 13:12:20;;;;;;;;;;;;;;;21.08;40.14;94569.06;10315663;28;2829;-67
2024/03/11 13:17:22;;;;;;;;;;;;;;;21.08;40.08;94558.53;10305172;28;3005;-67
2024/03/11 13:22:23;;;;;;;;;;;;;;;21.06;39.56;94566.75;10270154;28;2828;-67
2024/03/11 13:27:24;;;;;;;;;;;;;;;21.06;39.20;94556.97;10288088;28;2901;-66
2024/03/11 13:32:25;;;;;;;;;;;;;;;21.08;38.60;94563.78;10289738;28;2795;-67
2024/03/11 13:37:25;;;;;;;;;;;;;;;21.08;38.63;94565.34;10293044;28;2996;-66
2024/03/11 13:42:26;;;;;;;;;;;;;;;21.08;38.63;94563.78;10324018;28;2778;-66
2024/03/11 13:47:26;;;;;;;;;;;;;;;21.08;38.77;94574.34;10289527;28;2866;-67
2024/03/11 13:52:26;;;;;;;;;;;;;;;21.02;39.36;94571.81;10282347;28;2905;-68
2024/03/11 13:57:27;;;;;;;;;;;;;;;21.01;39.72;94577.38;10292172;28;2922;-67
2024/03/11 14:02:27;;;;;;;;;;;;;;;21.00;39.67;94570.53;10285687;28;2948;-66
2024/03/11 14:07:28;;;;;;;;;;;;;;;20.97;39.31;94569.31;10288760;28;2826;-67
2024/03/11 14:12:29;;;;;;;;;;;;;;;20.93;39.47;94576.25;10281273;28;3291;-66
2024/03/11 14:17:29;;;;;;;;;;;;;;;20.92;39.77;94577.34;10296917;28;2932;-67
2024/03/11 14:22:30;;;;;;;;;;;;;;;20.89;40.00;94572.69;10289504;28;2872;-67
2024/03/11 14:27:30;;;;;;;;;;;;;;;20.86;40.21;94568.00;10290728;28;2941;-67
2024/03/11 14:32:30;;;;;;;;;;;;;;;20.85;40.30;94577.00;10291125;28;2818;-65
2024/03/11 14:37:32;;;;;;;;;;;;;;;20.83;39.83;94579.16;10301859;28;2808;-66
2024/03/11 14:42:34;;;;;;;;;;;;;;;20.82;39.62;94574.97;10292466;28;2797;-67
2024/03/11 14:47:36;;;;;;;;;;;;;;;20.81;40.17;94576.03;10287443;28;2921;-66
2024/03/11 14:52:36;;;;;;;;;;;;;;;20.83;39.35;94583.66;10291956;28;2914;-66
2024/03/11 14:57:38;;;;;;;;;;;;;;;20.81;39.11;94586.56;10275045;28;2916;-66
2024/03/11 15:02:39;;;;;;;;;;;;;;;20.84;38.37;94579.91;10294376;28;2911;-66
2024/03/11 15:07:39;;;;;;;;;;;;;;;20.84;38.39;94578.06;10294899;28;2907;-66
2024/03/11 15:12:40;;;;;;;;;;;;;;;20.87;38.60;94581.97;10285878;28;2901;-66
2024/03/11 15:17:40;;;;;;;;;;;;;;;20.91;38.27;94581.06;10296671;28;2876;-66
2024/03/11 15:22:40;;;;;;;;;;;;;;;20.91;38.50;94575.00;10291813;28;2882;-66
2024/03/11 15:27:41;;;;;;;;;;;;;;;20.90;38.90;94587.41;10298435;28;2912;-67
2024/03/11 15:32:45;;;;;;;;;;;;;;;20.93;39.46;94578.91;10303414;28;2925;-68
2024/03/11 15:37:45;;;;;;;;;;;;;;;20.95;39.32;94581.22;10316906;28;2875;-68
2024/03/11 15:42:45;;;;;;;;;;;;;;;20.98;39.69;94591.13;10310248;28;2812;-66
2024/03/11 15:47:46;;;;;;;;;;;;;;;20.99;39.48;94597.97;10278968;28;2810;-68
2024/03/11 15:52:52;;;;;;;;;;;;;;;21.02;39.23;94595.53;10293808;28;3323;-67
2024/03/11 15:57:54;;;;;;;;;;;;;;;21.04;38.87;94606.53;10308749;28;2825;-67
2024/03/11 16:02:56;;;;;;;;;;;;;;;21.04;39.48;94611.81;10289189;28;2989;-67
2024/03/11 16:07:56;;;;;;;;;;;;;;;21.10;39.80;94606.44;10303926;28;2767;-67
2024/03/11 16:12:57;;;;;;;;;;;;;;;21.08;39.24;94619.91;10283052;28;2831;-67
2024/03/11 16:17:57;;;;;;;;;;;;;;;21.08;39.53;94621.75;10302045;28;2848;-67
2024/03/11 16:23:00;;;;;;;;;;;;;;;21.11;39.20;94634.31;10287559;28;2756;-66
2024/03/11 16:28:05;;;;;;;;;;;;;;;21.11;39.42;94644.84;10306388;28;2947;-66
2024/03/11 16:33:05;;;;;;;;;;;;;;;21.14;40.21;94646.91;10284634;28;2846;-67
2024/03/11 16:38:09;;;;;;;;;;;;;;;21.13;39.60;94651.38;10280747;28;3008;-67
2024/03/11 16:43:09;;;;;;;;;;;;;;;21.17;39.88;94662.09;10281420;28;2912;-66
2024/03/11 16:48:12;;;;;;;;;;;;;;;21.18;39.48;94661.03;10285721;28;2784;-67
2024/03/11 16:53:13;;;;;;;;;;;;;;;21.17;39.63;94678.69;10307137;28;2812;-67
2024/03/11 16:58:16;;;;;;;;;;;;;;;21.19;39.38;94686.28;10329887;28;2926;-67
2024/03/11 17:03:16;;;;;;;;;;;;;;;21.18;39.78;94684.75;10289548;28;2936;-66
2024/03/11 17:08:16;;;;;;;;;;;;;;;21.18;39.59;94690.78;10278366;28;2849;-67
2024/03/11 17:13:19;;;;;;;;;;;;;;;21.18;39.57;94701.34;10285643;28;2860;-67
2024/03/11 17:18:22;;;;;;;;;;;;;;;21.19;39.35;94707.38;10291771;28;2898;-67
2024/03/11 17:23:22;;;;;;;;;;;;;;;21.21;39.64;94718.38;10278352;28;2941;-67
2024/03/11 17:28:25;;;;;;;;;;;;;;;21.25;39.90;94732.50;10291724;28;2857;-67
2024/03/11 17:33:26;;;;;;;;;;;;;;;21.27;39.69;94735.66;10289515;28;2843;-68
2024/03/11 17:38:26;;;;;;;;;;;;;;;21.32;40.26;94732.88;10288860;28;2897;-66
2024/03/11 17:43:27;;;;;;;;;;;;;;;21.37;39.97;94741.41;10279540;28;3019;-67
2024/03/11 17:48:27;;;;;;;;;;;;;;;21.42;39.53;94748.44;10303976;28;2831;-65
2024/03/11 17:53:28;;;;;;;;;;;;;;;21.46;39.41;94754.66;10293724;28;2842;-66
2024/03/11 17:58:28;;;;;;;;;;;;;;;21.42;39.04;94758.97;10325763;28;2844;-66
2024/03/11 18:03:29;;;;;;;;;;;;;;;21.42;38.31;94765.03;10295722;28;2943;-67
2024/03/11 18:08:29;;;;;;;;;;;;;;;21.37;38.60;94772.31;10328473;28;2905;-67
2024/03/11 18:13:30;;;;;;;;;;;;;;;21.33;38.64;94781.91;10299182;28;2866;-65
2024/03/11 18:18:34;;;;;;;;;;;;;;;21.30;38.62;94782.47;10291838;28;2953;-65
2024/03/11 18:23:34;;;;;;;;;;;;;;;21.29;38.31;94799.38;10295073;28;2866;-66
2024/03/11 18:28:34;;;;;;;;;;;;;;;21.27;38.54;94804.19;10289287;28;2822;-67
2024/03/11 18:33:35;;;;;;;;;;;;;;;21.22;38.82;94812.97;10330075;28;2879;-66
2024/03/11 18:38:36;;;;;;;;;;;;;;;21.24;38.12;94815.31;10321244;28;2768;-67
2024/03/11 18:43:38;;;;;;;;;;;;;;;21.23;38.07;94824.28;10282487;28;2952;-64
2024/03/11 18:48:40;;;;;;;;;;;;;;;21.29;38.00;94828.38;10293793;28;2893;-66
2024/03/11 18:53:43;;;;;;;;;;;;;;;21.28;38.09;94838.13;10292354;28;2855;-67
2024/03/11 18:58:46;;;;;;;;;;;;;;;21.29;38.49;94841.56;10295648;28;2929;-67
2024/03/11 19:03:46;;;;;;;;;;;;;;;21.33;38.42;94851.19;10287813;28;2890;-68
2024/03/11 19:08:48;;;;;;;;;;;;;;;21.43;37.71;94853.56;10286378;28;2954;-76
2024/03/11 19:13:49;;;;;;;;;;;;;;;21.49;37.22;94864.81;10310725;28;3067;-72
2024/03/11 19:18:50;;;;;;;;;;;;;;;21.55;37.40;94860.97;10318966;28;2823;-76
2024/03/11 19:23:51;;;;;;;;;;;;;;;21.53;37.87;94866.53;10300536;28;2887;-74
2024/03/11 19:28:51;;;;;;;;;;;;;;;21.59;37.57;94872.47;10289817;28;2906;-70
2024/03/11 19:33:51;;;;;;;;;;;;;;;21.63;37.15;94876.06;10323116;28;2816;-73
2024/03/11 19:39:14;;;;;;;;;;;;;;;21.65;36.67;94882.59;10290620;28;2794;-73
2024/03/11 19:44:18;;;;;;;;;;;;;;;21.65;37.19;94887.09;10290873;28;2807;-76
2024/03/11 19:49:31;;;;;;;;;;;;;;;21.69;37.07;94896.75;10318002;28;2782;-72
2024/03/11 19:54:34;;;;;;;;;;;;;;;21.69;36.69;94902.03;10293229;28;2776;-74
2024/03/11 19:59:48;;;;;;;;;;;;;;;21.62;36.80;94911.41;10287837;28;2823;-75
2024/03/11 20:05:01;;;;;;;;;;;;;;;21.65;36.59;94932.72;10286373;28;2853;-74
2024/03/11 20:10:20;;;;;;;;;;;;;;;21.62;37.05;94935.16;10315852;28;2863;-73
2024/03/11 20:15:37;;;;;;;;;;;;;;;21.69;36.08;94941.59;10289436;28;2814;-71
2024/03/11 20:20:53;;;;;;;;;;;;;;;21.63;36.95;94945.41;10305750;28;2807;-71
2024/03/11 20:25:53;;;;;;;;;;;;;;;21.61;37.43;94954.69;10327864;27;3014;-70
2024/03/11 20:31:09;;;;;;;;;;;;;;;21.64;36.90;94962.00;10280863;28;2990;-70
2024/03/11 20:36:13;;;;;;;;;;;;;;;21.65;36.82;94963.56;10282751;28;2989;-71
2024/03/11 20:41:16;;;;;;;;;;;;;;;21.62;37.04;94972.84;10289255;28;2877;-72
2024/03/11 20:46:17;;;;;;;;;;;;;;;21.64;37.47;94983.09;10286446;28;2862;-71
2024/03/11 20:51:17;;;;;;;;;;;;;;;21.65;37.11;94974.91;10295179;28;2801;-70
2024/03/11 20:56:18;;;;;;;;;;;;;;;21.69;37.16;94980.38;10289141;28;2878;-71
2024/03/11 21:01:19;;;;;;;;;;;;;;;21.75;36.21;94984.44;10299845;28;2820;-72
2024/03/11 21:06:19;;;;;;;;;;;;;;;21.72;37.09;94995.59;10323874;28;2966;-73
2024/03/11 21:11:20;;;;;;;;;;;;;;;21.68;36.75;94995.41;10331410;28;2235;-70
2024/03/11 21:16:21;;;;;;;;;;;;;;;21.69;36.26;95004.09;10336480;28;2451;-72
2024/03/11 21:21:33;;;;;;;;;;;;;;;21.66;37.54;95007.31;10307352;28;1989;-76
2024/03/11 21:27:01;;;;;;;;;;;;;;;21.59;37.26;95014.88;10310351;28;2180;-77
2024/03/11 21:32:00;;;;;;;;;;;;;;;21.58;38.16;95008.81;10305004;28;2076;-77
2024/03/11 21:37:00;;;;;;;;;;;;;;;21.54;38.16;95007.84;10310581;28;1839;-76
2024/03/11 21:42:00;;;;;;;;;;;;;;;21.58;37.79;95008.03;10330323;28;1965;-76
2024/03/11 21:47:01;;;;;;;;;;;;;;;21.51;38.49;95005.81;10341929;28;2118;-75
2024/03/11 21:52:01;;;;;;;;;;;;;;;21.46;39.97;95015.69;10334490;28;1922;-74
2024/03/11 21:57:04;;;;;;;;;;;;;;;21.43;40.44;95024.19;10308888;28;1843;-74
2024/03/11 22:02:04;;;;;;;;;;;;;;;21.33;41.24;95030.44;10287064;28;2463;-73
2024/03/11 22:07:05;;;;;;;;;;;;;;;21.30;40.33;95035.53;10327362;28;1909;-73
2024/03/11 22:12:07;;;;;;;;;;;;;;;21.23;40.52;95045.69;10309795;28;1862;-73
2024/03/11 22:17:10;;;;;;;;;;;;;;;21.17;41.52;95044.22;10299587;28;1440;-73
2024/03/11 22:22:11;;;;;;;;;;;;;;;21.12;41.73;95047.75;10306869;28;1918;-75
2024/03/11 22:27:12;;;;;;;;;;;;;;;21.05;41.70;95048.16;10304929;28;1937;-74
2024/03/11 22:32:12;;;;;;;;;;;;;;;21.01;42.11;95056.88;10291584;28;1833;-74
2024/03/11 22:37:12;;;;;;;;;;;;;;;20.96;42.17;95057.75;10305600;28;1847;-74
2024/03/11 22:42:14;;;;;;;;;;;;;;;20.94;42.34;95064.38;10319083;28;1967;-74
2024/03/11 22:47:14;;;;;;;;;;;;;;;20.89;42.61;95060.03;10313898;28;2481;-74
2024/03/11 22:52:14;;;;;;;;;;;;;;;20.86;42.69;95073.75;10313615;28;1708;-76
2024/03/11 22:57:17;;;;;;;;;;;;;;;20.84;42.53;95081.16;10340930;28;1973;-75
2024/03/11 23:02:21;;;;;;;;;;;;;;;20.81;42.53;95079.09;10348239;27;1906;-75
2024/03/11 23:07:23;;;;;;;;;;;;;;;20.78;42.36;95077.06;10400312;28;1782;-74
2024/03/11 23:12:24;;;;;;;;;;;;;;;20.74;42.50;95078.72;10312458;28;1899;-75
2024/03/11 23:17:24;;;;;;;;;;;;;;;20.73;42.47;95079.78;10339395;28;1976;-75
2024/03/11 23:22:25;;;;;;;;;;;;;;;20.70;42.35;95077.75;10342274;28;1930;-74
2024/03/11 23:27:25;;;;;;;;;;;;;;;20.67;42.61;95080.94;10316676;28;2047;-74
2024/03/11 23:32:26;;;;;;;;;;;;;;;20.65;42.24;95084.97;10313668;28;2413;-73
2024/03/11 23:37:27;;;;;;;;;;;;;;;20.62;42.42;95080.25;10324780;28;1906;-75
2024/03/11 23:42:27;;;;;;;;;;;;;;;20.60;42.49;95100.81;10310439;28;1848;-75
2024/03/11 23:47:27;;;;;;;;;;;;;;;20.59;42.34;95100.03;10321896;28;1863;-74
2024/03/11 23:52:27;;;;;;;;;;;;;;;20.57;42.12;95099.53;10343613;28;1874;-76
2024/03/11 23:57:28;;;;;;;;;;;;;;;20.54;42.38;95101.97;10323859;28;1902;-75
